sensor_id;sensor_type;location;lat;lon;timestamp;P1;durP1;ratioP1;P2;durP2;ratioP2
63189;SDS011;49286;44.460;26.114;2023-08-01T00:01:27;4.28;;;2.25;;
63189;SDS011;49286;44.460;26.114;2023-08-01T00:03:52;3.00;;;2.00;;
63189;SDS011;49286;44.460;26.114;2023-08-01T00:06:18;3.22;;;1.73;;
63189;SDS011;49286;44.460;26.114;2023-08-01T00:08:44;3.63;;;1.83;;
63189;SDS011;49286;44.460;26.114;2023-08-01T00:11:10;3.22;;;2.17;;
63189;SDS011;49286;44.460;26.114;2023-08-01T00:13:36;2.40;;;1.65;;
63189;SDS011;49286;44.460;26.114;2023-08-01T00:16:02;2.88;;;2.20;;
63189;SDS011;49286;44.460;26.114;2023-08-01T00:18:27;1.88;;;1.25;;
63189;SDS011;49286;44.460;26.114;2023-08-01T00:20:53;3.83;;;1.50;;
63189;SDS011;49286;44.460;26.114;2023-08-01T00:23:19;3.70;;;1.83;;
63189;SDS011;49286;44.460;26.114;2023-08-01T00:25:44;3.35;;;1.90;;
63189;SDS011;49286;44.460;26.114;2023-08-01T00:28:10;3.15;;;1.77;;
63189;SDS011;49286;44.460;26.114;2023-08-01T00:30:35;2.95;;;1.65;;
63189;SDS011;49286;44.460;26.114;2023-08-01T00:33:01;2.22;;;1.30;;
63189;SDS011;49286;44.460;26.114;2023-08-01T00:35:26;2.58;;;1.67;;
63189;SDS011;49286;44.460;26.114;2023-08-01T00:37:51;2.70;;;1.45;;
63189;SDS011;49286;44.460;26.114;2023-08-01T00:40:17;3.55;;;2.03;;
63189;SDS011;49286;44.460;26.114;2023-08-01T00:42:42;1.63;;;1.13;;
63189;SDS011;49286;44.460;26.114;2023-08-01T00:45:08;5.55;;;2.33;;
63189;SDS011;49286;44.460;26.114;2023-08-01T00:47:34;2.63;;;1.88;;
63189;SDS011;49286;44.460;26.114;2023-08-01T00:50:00;4.40;;;1.90;;
63189;SDS011;49286;44.460;26.114;2023-08-01T00:52:26;2.17;;;1.98;;
63189;SDS011;49286;44.460;26.114;2023-08-01T00:54:52;6.63;;;3.38;;
63189;SDS011;49286;44.460;26.114;2023-08-01T00:57:18;2.33;;;1.55;;
63189;SDS011;49286;44.460;26.114;2023-08-01T00:59:44;3.58;;;1.42;;
63189;SDS011;49286;44.460;26.114;2023-08-01T01:02:09;3.03;;;1.55;;
63189;SDS011;49286;44.460;26.114;2023-08-01T01:04:36;4.72;;;2.13;;
63189;SDS011;49286;44.460;26.114;2023-08-01T01:07:03;3.80;;;1.92;;
63189;SDS011;49286;44.460;26.114;2023-08-01T01:09:31;3.35;;;2.08;;
63189;SDS011;49286;44.460;26.114;2023-08-01T01:11:57;3.17;;;1.80;;
63189;SDS011;49286;44.460;26.114;2023-08-01T01:14:29;5.03;;;2.58;;
63189;SDS011;49286;44.460;26.114;2023-08-01T01:16:54;2.58;;;1.27;;
63189;SDS011;49286;44.460;26.114;2023-08-01T01:19:20;4.28;;;2.85;;
63189;SDS011;49286;44.460;26.114;2023-08-01T01:24:43;4.18;;;2.47;;
63189;SDS011;49286;44.460;26.114;2023-08-01T01:27:11;4.20;;;1.88;;
63189;SDS011;49286;44.460;26.114;2023-08-01T01:29:37;5.05;;;2.28;;
63189;SDS011;49286;44.460;26.114;2023-08-01T01:32:04;4.30;;;2.40;;
63189;SDS011;49286;44.460;26.114;2023-08-01T01:34:31;4.30;;;2.55;;
63189;SDS011;49286;44.460;26.114;2023-08-01T01:36:56;3.97;;;2.92;;
63189;SDS011;49286;44.460;26.114;2023-08-01T01:39:22;5.00;;;3.13;;
63189;SDS011;49286;44.460;26.114;2023-08-01T01:41:47;5.50;;;2.78;;
63189;SDS011;49286;44.460;26.114;2023-08-01T01:44:13;4.90;;;2.00;;
63189;SDS011;49286;44.460;26.114;2023-08-01T01:46:38;9.15;;;3.33;;
63189;SDS011;49286;44.460;26.114;2023-08-01T01:49:04;6.72;;;3.65;;
63189;SDS011;49286;44.460;26.114;2023-08-01T01:51:29;4.13;;;3.08;;
63189;SDS011;49286;44.460;26.114;2023-08-01T01:53:55;7.00;;;2.47;;
63189;SDS011;49286;44.460;26.114;2023-08-01T01:56:21;6.68;;;2.13;;
63189;SDS011;49286;44.460;26.114;2023-08-01T01:58:46;4.47;;;3.00;;
63189;SDS011;49286;44.460;26.114;2023-08-01T02:01:12;4.90;;;2.90;;
63189;SDS011;49286;44.460;26.114;2023-08-01T02:03:37;3.60;;;2.17;;
63189;SDS011;49286;44.460;26.114;2023-08-01T02:06:03;3.97;;;2.63;;
63189;SDS011;49286;44.460;26.114;2023-08-01T02:08:29;4.60;;;2.67;;
63189;SDS011;49286;44.460;26.114;2023-08-01T02:10:55;3.67;;;1.90;;
63189;SDS011;49286;44.460;26.114;2023-08-01T02:13:23;4.45;;;3.28;;
63189;SDS011;49286;44.460;26.114;2023-08-01T02:15:49;3.80;;;2.38;;
63189;SDS011;49286;44.460;26.114;2023-08-01T02:18:15;4.43;;;2.78;;
63189;SDS011;49286;44.460;26.114;2023-08-01T02:20:40;3.67;;;2.53;;
63189;SDS011;49286;44.460;26.114;2023-08-01T02:23:05;4.15;;;2.40;;
63189;SDS011;49286;44.460;26.114;2023-08-01T02:25:31;4.07;;;2.08;;
63189;SDS011;49286;44.460;26.114;2023-08-01T02:27:56;4.30;;;2.17;;
63189;SDS011;49286;44.460;26.114;2023-08-01T02:30:22;5.22;;;2.38;;
63189;SDS011;49286;44.460;26.114;2023-08-01T02:32:47;4.47;;;2.30;;
63189;SDS011;49286;44.460;26.114;2023-08-01T02:35:13;3.83;;;1.80;;
63189;SDS011;49286;44.460;26.114;2023-08-01T02:37:38;2.17;;;1.23;;
63189;SDS011;49286;44.460;26.114;2023-08-01T02:40:04;5.88;;;2.70;;
63189;SDS011;49286;44.460;26.114;2023-08-01T02:42:32;4.68;;;2.53;;
63189;SDS011;49286;44.460;26.114;2023-08-01T02:44:58;3.70;;;1.75;;
63189;SDS011;49286;44.460;26.114;2023-08-01T02:47:23;4.25;;;2.67;;
63189;SDS011;49286;44.460;26.114;2023-08-01T02:49:48;3.17;;;2.15;;
63189;SDS011;49286;44.460;26.114;2023-08-01T02:52:14;4.32;;;2.55;;
63189;SDS011;49286;44.460;26.114;2023-08-01T02:54:39;4.78;;;2.50;;
63189;SDS011;49286;44.460;26.114;2023-08-01T02:57:05;4.07;;;2.00;;
63189;SDS011;49286;44.460;26.114;2023-08-01T02:59:31;3.28;;;2.08;;
63189;SDS011;49286;44.460;26.114;2023-08-01T03:01:58;3.42;;;1.92;;
63189;SDS011;49286;44.460;26.114;2023-08-01T03:04:24;2.67;;;1.33;;
63189;SDS011;49286;44.460;26.114;2023-08-01T03:06:49;3.90;;;2.05;;
63189;SDS011;49286;44.460;26.114;2023-08-01T03:09:14;4.60;;;2.35;;
63189;SDS011;49286;44.460;26.114;2023-08-01T03:11:41;3.63;;;2.55;;
63189;SDS011;49286;44.460;26.114;2023-08-01T03:14:06;2.95;;;1.63;;
63189;SDS011;49286;44.460;26.114;2023-08-01T03:16:32;3.85;;;2.22;;
63189;SDS011;49286;44.460;26.114;2023-08-01T03:18:58;5.22;;;2.15;;
63189;SDS011;49286;44.460;26.114;2023-08-01T03:21:29;2.30;;;1.25;;
63189;SDS011;49286;44.460;26.114;2023-08-01T03:23:58;2.75;;;1.75;;
63189;SDS011;49286;44.460;26.114;2023-08-01T03:26:24;3.78;;;2.05;;
63189;SDS011;49286;44.460;26.114;2023-08-01T03:28:49;3.65;;;2.17;;
63189;SDS011;49286;44.460;26.114;2023-08-01T03:31:15;2.13;;;1.52;;
63189;SDS011;49286;44.460;26.114;2023-08-01T03:33:40;4.63;;;2.38;;
63189;SDS011;49286;44.460;26.114;2023-08-01T03:36:06;2.70;;;1.58;;
63189;SDS011;49286;44.460;26.114;2023-08-01T03:38:31;5.07;;;2.42;;
63189;SDS011;49286;44.460;26.114;2023-08-01T03:40:57;5.18;;;2.25;;
63189;SDS011;49286;44.460;26.114;2023-08-01T03:43:22;3.30;;;1.92;;
63189;SDS011;49286;44.460;26.114;2023-08-01T03:45:48;1.90;;;1.13;;
63189;SDS011;49286;44.460;26.114;2023-08-01T03:48:14;3.80;;;2.45;;
63189;SDS011;49286;44.460;26.114;2023-08-01T03:50:40;2.55;;;1.85;;
63189;SDS011;49286;44.460;26.114;2023-08-01T03:53:05;2.53;;;1.40;;
63189;SDS011;49286;44.460;26.114;2023-08-01T03:55:32;2.63;;;1.60;;
63189;SDS011;49286;44.460;26.114;2023-08-01T03:57:57;3.78;;;2.97;;
63189;SDS011;49286;44.460;26.114;2023-08-01T04:00:23;6.50;;;3.47;;
63189;SDS011;49286;44.460;26.114;2023-08-01T04:02:48;5.10;;;2.58;;
63189;SDS011;49286;44.460;26.114;2023-08-01T04:05:14;5.45;;;3.45;;
63189;SDS011;49286;44.460;26.114;2023-08-01T04:07:39;7.00;;;2.45;;
63189;SDS011;49286;44.460;26.114;2023-08-01T04:10:06;5.10;;;3.42;;
63189;SDS011;49286;44.460;26.114;2023-08-01T04:12:32;4.72;;;2.58;;
63189;SDS011;49286;44.460;26.114;2023-08-01T04:14:58;5.32;;;3.28;;
63189;SDS011;49286;44.460;26.114;2023-08-01T04:17:24;5.95;;;2.70;;
63189;SDS011;49286;44.460;26.114;2023-08-01T04:19:50;6.45;;;3.67;;
63189;SDS011;49286;44.460;26.114;2023-08-01T04:22:15;6.80;;;3.67;;
63189;SDS011;49286;44.460;26.114;2023-08-01T04:24:41;5.88;;;3.50;;
63189;SDS011;49286;44.460;26.114;2023-08-01T04:27:07;4.53;;;2.38;;
63189;SDS011;49286;44.460;26.114;2023-08-01T04:29:32;6.00;;;3.08;;
63189;SDS011;49286;44.460;26.114;2023-08-01T04:31:57;6.65;;;5.53;;
63189;SDS011;49286;44.460;26.114;2023-08-01T04:34:23;4.55;;;3.20;;
63189;SDS011;49286;44.460;26.114;2023-08-01T04:36:48;5.53;;;3.55;;
63189;SDS011;49286;44.460;26.114;2023-08-01T04:39:14;3.78;;;2.85;;
63189;SDS011;49286;44.460;26.114;2023-08-01T04:41:39;7.97;;;2.67;;
63189;SDS011;49286;44.460;26.114;2023-08-01T04:44:05;5.47;;;3.90;;
63189;SDS011;49286;44.460;26.114;2023-08-01T04:46:31;5.63;;;3.45;;
63189;SDS011;49286;44.460;26.114;2023-08-01T04:48:57;4.78;;;2.90;;
63189;SDS011;49286;44.460;26.114;2023-08-01T04:51:22;3.38;;;2.13;;
63189;SDS011;49286;44.460;26.114;2023-08-01T04:53:48;6.43;;;2.97;;
63189;SDS011;49286;44.460;26.114;2023-08-01T04:56:13;4.30;;;2.50;;
63189;SDS011;49286;44.460;26.114;2023-08-01T04:58:39;5.35;;;2.40;;
63189;SDS011;49286;44.460;26.114;2023-08-01T05:01:04;4.28;;;2.45;;
63189;SDS011;49286;44.460;26.114;2023-08-01T05:03:30;7.25;;;4.22;;
63189;SDS011;49286;44.460;26.114;2023-08-01T05:05:55;5.63;;;3.20;;
63189;SDS011;49286;44.460;26.114;2023-08-01T05:08:21;2.60;;;1.17;;
63189;SDS011;49286;44.460;26.114;2023-08-01T05:10:46;3.92;;;2.75;;
63189;SDS011;49286;44.460;26.114;2023-08-01T05:13:11;4.70;;;2.10;;
63189;SDS011;49286;44.460;26.114;2023-08-01T05:15:37;2.83;;;1.70;;
63189;SDS011;49286;44.460;26.114;2023-08-01T05:18:02;5.75;;;3.60;;
63189;SDS011;49286;44.460;26.114;2023-08-01T05:20:28;3.45;;;2.90;;
63189;SDS011;49286;44.460;26.114;2023-08-01T05:22:58;6.50;;;2.80;;
63189;SDS011;49286;44.460;26.114;2023-08-01T05:25:24;4.95;;;2.92;;
63189;SDS011;49286;44.460;26.114;2023-08-01T05:27:50;5.97;;;3.10;;
63189;SDS011;49286;44.460;26.114;2023-08-01T05:30:15;12.00;;;4.07;;
63189;SDS011;49286;44.460;26.114;2023-08-01T05:32:41;4.00;;;2.55;;
63189;SDS011;49286;44.460;26.114;2023-08-01T05:35:08;5.50;;;4.53;;
63189;SDS011;49286;44.460;26.114;2023-08-01T05:37:34;4.68;;;2.83;;
63189;SDS011;49286;44.460;26.114;2023-08-01T05:40:01;5.45;;;2.90;;
63189;SDS011;49286;44.460;26.114;2023-08-01T05:42:28;4.10;;;1.95;;
63189;SDS011;49286;44.460;26.114;2023-08-01T05:44:53;5.30;;;2.58;;
63189;SDS011;49286;44.460;26.114;2023-08-01T05:47:19;4.00;;;2.53;;
63189;SDS011;49286;44.460;26.114;2023-08-01T05:49:44;4.50;;;2.00;;
63189;SDS011;49286;44.460;26.114;2023-08-01T05:52:10;4.97;;;2.47;;
63189;SDS011;49286;44.460;26.114;2023-08-01T05:54:35;4.07;;;2.33;;
63189;SDS011;49286;44.460;26.114;2023-08-01T05:57:01;4.07;;;1.95;;
63189;SDS011;49286;44.460;26.114;2023-08-01T05:59:26;3.17;;;1.83;;
63189;SDS011;49286;44.460;26.114;2023-08-01T06:01:52;2.72;;;1.40;;
63189;SDS011;49286;44.460;26.114;2023-08-01T06:04:17;3.65;;;1.52;;
63189;SDS011;49286;44.460;26.114;2023-08-01T06:06:43;3.38;;;2.05;;
63189;SDS011;49286;44.460;26.114;2023-08-01T06:09:08;4.28;;;1.73;;
63189;SDS011;49286;44.460;26.114;2023-08-01T06:11:34;3.42;;;2.35;;
63189;SDS011;49286;44.460;26.114;2023-08-01T06:13:59;3.95;;;2.53;;
63189;SDS011;49286;44.460;26.114;2023-08-01T06:16:25;4.38;;;2.58;;
63189;SDS011;49286;44.460;26.114;2023-08-01T06:18:51;5.15;;;2.35;;
63189;SDS011;49286;44.460;26.114;2023-08-01T06:21:16;4.70;;;2.08;;
63189;SDS011;49286;44.460;26.114;2023-08-01T06:23:42;2.95;;;1.52;;
63189;SDS011;49286;44.460;26.114;2023-08-01T06:26:07;4.10;;;1.85;;
63189;SDS011;49286;44.460;26.114;2023-08-01T06:28:33;1.90;;;1.35;;
63189;SDS011;49286;44.460;26.114;2023-08-01T06:30:58;2.78;;;1.73;;
63189;SDS011;49286;44.460;26.114;2023-08-01T06:33:23;2.42;;;1.73;;
63189;SDS011;49286;44.460;26.114;2023-08-01T06:35:49;3.80;;;1.60;;
63189;SDS011;49286;44.460;26.114;2023-08-01T06:38:14;2.47;;;1.67;;
63189;SDS011;49286;44.460;26.114;2023-08-01T06:40:40;2.17;;;1.35;;
63189;SDS011;49286;44.460;26.114;2023-08-01T06:43:05;3.70;;;1.48;;
63189;SDS011;49286;44.460;26.114;2023-08-01T06:45:31;3.30;;;1.90;;
63189;SDS011;49286;44.460;26.114;2023-08-01T06:47:56;2.80;;;1.95;;
63189;SDS011;49286;44.460;26.114;2023-08-01T06:50:22;2.40;;;1.35;;
63189;SDS011;49286;44.460;26.114;2023-08-01T06:52:48;2.13;;;1.35;;
63189;SDS011;49286;44.460;26.114;2023-08-01T06:55:13;3.80;;;1.90;;
63189;SDS011;49286;44.460;26.114;2023-08-01T06:57:39;2.53;;;1.35;;
63189;SDS011;49286;44.460;26.114;2023-08-01T07:00:05;2.35;;;1.63;;
63189;SDS011;49286;44.460;26.114;2023-08-01T07:02:31;2.83;;;1.15;;
63189;SDS011;49286;44.460;26.114;2023-08-01T07:04:56;2.25;;;1.40;;
63189;SDS011;49286;44.460;26.114;2023-08-01T07:07:22;1.77;;;1.08;;
63189;SDS011;49286;44.460;26.114;2023-08-01T07:09:47;3.65;;;1.45;;
63189;SDS011;49286;44.460;26.114;2023-08-01T07:12:13;1.77;;;0.80;;
63189;SDS011;49286;44.460;26.114;2023-08-01T07:14:39;2.38;;;1.38;;
63189;SDS011;49286;44.460;26.114;2023-08-01T07:17:04;2.50;;;2.10;;
63189;SDS011;49286;44.460;26.114;2023-08-01T07:19:30;1.85;;;1.38;;
63189;SDS011;49286;44.460;26.114;2023-08-01T07:21:55;3.90;;;1.20;;
63189;SDS011;49286;44.460;26.114;2023-08-01T07:24:21;2.30;;;1.10;;
63189;SDS011;49286;44.460;26.114;2023-08-01T07:26:46;3.83;;;1.55;;
63189;SDS011;49286;44.460;26.114;2023-08-01T07:29:12;2.53;;;1.73;;
63189;SDS011;49286;44.460;26.114;2023-08-01T07:31:40;2.28;;;1.10;;
63189;SDS011;49286;44.460;26.114;2023-08-01T07:34:06;2.30;;;1.15;;
63189;SDS011;49286;44.460;26.114;2023-08-01T07:36:32;1.27;;;0.80;;
63189;SDS011;49286;44.460;26.114;2023-08-01T07:38:58;4.40;;;1.52;;
63189;SDS011;49286;44.460;26.114;2023-08-01T07:41:23;2.45;;;1.63;;
63189;SDS011;49286;44.460;26.114;2023-08-01T07:43:49;1.52;;;0.65;;
63189;SDS011;49286;44.460;26.114;2023-08-01T07:46:14;2.65;;;2.15;;
63189;SDS011;49286;44.460;26.114;2023-08-01T07:48:40;3.03;;;1.48;;
63189;SDS011;49286;44.460;26.114;2023-08-01T07:51:05;1.88;;;1.23;;
63189;SDS011;49286;44.460;26.114;2023-08-01T07:53:32;3.17;;;1.80;;
63189;SDS011;49286;44.460;26.114;2023-08-01T07:56:01;4.47;;;1.55;;
63189;SDS011;49286;44.460;26.114;2023-08-01T07:58:31;1.85;;;0.98;;
63189;SDS011;49286;44.460;26.114;2023-08-01T08:00:57;2.00;;;1.15;;
63189;SDS011;49286;44.460;26.114;2023-08-01T08:03:28;1.77;;;1.02;;
63189;SDS011;49286;44.460;26.114;2023-08-01T08:05:53;1.17;;;0.68;;
63189;SDS011;49286;44.460;26.114;2023-08-01T08:08:18;1.90;;;1.38;;
63189;SDS011;49286;44.460;26.114;2023-08-01T08:10:44;1.38;;;0.90;;
63189;SDS011;49286;44.460;26.114;2023-08-01T08:13:09;1.48;;;0.90;;
63189;SDS011;49286;44.460;26.114;2023-08-01T08:15:35;4.57;;;1.30;;
63189;SDS011;49286;44.460;26.114;2023-08-01T08:18:01;4.57;;;1.80;;
63189;SDS011;49286;44.460;26.114;2023-08-01T08:20:29;1.45;;;1.10;;
63189;SDS011;49286;44.460;26.114;2023-08-01T08:22:59;2.30;;;1.00;;
63189;SDS011;49286;44.460;26.114;2023-08-01T08:25:24;1.65;;;0.93;;
63189;SDS011;49286;44.460;26.114;2023-08-01T08:27:50;2.55;;;1.58;;
63189;SDS011;49286;44.460;26.114;2023-08-01T08:30:15;2.17;;;1.40;;
63189;SDS011;49286;44.460;26.114;2023-08-01T08:32:42;4.38;;;1.85;;
63189;SDS011;49286;44.460;26.114;2023-08-01T08:35:07;2.15;;;1.38;;
63189;SDS011;49286;44.460;26.114;2023-08-01T08:37:33;1.83;;;1.15;;
63189;SDS011;49286;44.460;26.114;2023-08-01T08:39:58;1.65;;;1.10;;
63189;SDS011;49286;44.460;26.114;2023-08-01T08:42:24;1.70;;;0.75;;
63189;SDS011;49286;44.460;26.114;2023-08-01T08:44:50;2.75;;;1.15;;
63189;SDS011;49286;44.460;26.114;2023-08-01T08:47:20;1.55;;;0.90;;
63189;SDS011;49286;44.460;26.114;2023-08-01T08:49:54;1.00;;;0.70;;
63189;SDS011;49286;44.460;26.114;2023-08-01T08:52:22;2.55;;;1.30;;
63189;SDS011;49286;44.460;26.114;2023-08-01T08:54:49;2.72;;;1.13;;
63189;SDS011;49286;44.460;26.114;2023-08-01T08:57:15;3.38;;;1.40;;
63189;SDS011;49286;44.460;26.114;2023-08-01T08:59:41;2.22;;;1.83;;
63189;SDS011;49286;44.460;26.114;2023-08-01T09:02:08;2.00;;;0.80;;
63189;SDS011;49286;44.460;26.114;2023-08-01T09:04:34;1.35;;;1.00;;
63189;SDS011;49286;44.460;26.114;2023-08-01T09:07:05;3.72;;;1.83;;
63189;SDS011;49286;44.460;26.114;2023-08-01T09:09:33;4.10;;;1.40;;
63189;SDS011;49286;44.460;26.114;2023-08-01T09:11:59;2.83;;;1.77;;
63189;SDS011;49286;44.460;26.114;2023-08-01T09:14:25;1.10;;;0.80;;
63189;SDS011;49286;44.460;26.114;2023-08-01T09:16:51;1.55;;;0.93;;
63189;SDS011;49286;44.460;26.114;2023-08-01T09:19:17;3.13;;;0.60;;
63189;SDS011;49286;44.460;26.114;2023-08-01T09:21:46;3.78;;;0.88;;
63189;SDS011;49286;44.460;26.114;2023-08-01T09:24:19;1.95;;;1.13;;
63189;SDS011;49286;44.460;26.114;2023-08-01T09:26:46;4.00;;;1.52;;
63189;SDS011;49286;44.460;26.114;2023-08-01T09:29:13;1.67;;;0.80;;
63189;SDS011;49286;44.460;26.114;2023-08-01T09:31:41;2.50;;;1.08;;
63189;SDS011;49286;44.460;26.114;2023-08-01T09:34:24;2.05;;;1.23;;
63189;SDS011;49286;44.460;26.114;2023-08-01T09:36:50;1.60;;;0.90;;
63189;SDS011;49286;44.460;26.114;2023-08-01T09:39:22;1.17;;;0.80;;
63189;SDS011;49286;44.460;26.114;2023-08-01T09:42:00;1.05;;;0.90;;
63189;SDS011;49286;44.460;26.114;2023-08-01T09:44:28;10.13;;;2.13;;
63189;SDS011;49286;44.460;26.114;2023-08-01T09:46:55;1.38;;;1.05;;
63189;SDS011;49286;44.460;26.114;2023-08-01T09:49:21;1.45;;;0.95;;
63189;SDS011;49286;44.460;26.114;2023-08-01T09:51:47;2.10;;;0.90;;
63189;SDS011;49286;44.460;26.114;2023-08-01T09:54:14;2.42;;;1.10;;
63189;SDS011;49286;44.460;26.114;2023-08-01T09:56:44;2.47;;;1.30;;
63189;SDS011;49286;44.460;26.114;2023-08-01T09:59:11;2.65;;;1.70;;
63189;SDS011;49286;44.460;26.114;2023-08-01T10:01:36;2.50;;;1.23;;
63189;SDS011;49286;44.460;26.114;2023-08-01T10:04:04;1.33;;;0.70;;
63189;SDS011;49286;44.460;26.114;2023-08-01T10:06:33;1.90;;;1.52;;
63189;SDS011;49286;44.460;26.114;2023-08-01T10:09:01;1.00;;;0.75;;
63189;SDS011;49286;44.460;26.114;2023-08-01T10:11:27;1.48;;;1.00;;
63189;SDS011;49286;44.460;26.114;2023-08-01T10:13:58;1.70;;;0.90;;
63189;SDS011;49286;44.460;26.114;2023-08-01T10:16:25;2.38;;;1.30;;
63189;SDS011;49286;44.460;26.114;2023-08-01T10:18:50;2.25;;;1.20;;
63189;SDS011;49286;44.460;26.114;2023-08-01T10:21:16;2.83;;;1.30;;
63189;SDS011;49286;44.460;26.114;2023-08-01T10:23:43;2.85;;;1.38;;
63189;SDS011;49286;44.460;26.114;2023-08-01T10:26:11;0.75;;;0.55;;
63189;SDS011;49286;44.460;26.114;2023-08-01T10:28:38;1.67;;;1.00;;
63189;SDS011;49286;44.460;26.114;2023-08-01T10:33:39;1.90;;;0.88;;
63189;SDS011;49286;44.460;26.114;2023-08-01T10:36:20;2.17;;;1.02;;
63189;SDS011;49286;44.460;26.114;2023-08-01T10:38:48;3.15;;;1.27;;
63189;SDS011;49286;44.460;26.114;2023-08-01T10:41:21;1.40;;;0.90;;
63189;SDS011;49286;44.460;26.114;2023-08-01T10:46:56;1.90;;;1.00;;
63189;SDS011;49286;44.460;26.114;2023-08-01T10:52:01;2.15;;;1.15;;
63189;SDS011;49286;44.460;26.114;2023-08-01T10:54:27;3.13;;;1.85;;
63189;SDS011;49286;44.460;26.114;2023-08-01T10:56:53;1.05;;;0.50;;
63189;SDS011;49286;44.460;26.114;2023-08-01T10:59:23;1.58;;;0.77;;
63189;SDS011;49286;44.460;26.114;2023-08-01T11:01:49;1.25;;;0.95;;
63189;SDS011;49286;44.460;26.114;2023-08-01T11:04:19;3.05;;;2.70;;
63189;SDS011;49286;44.460;26.114;2023-08-01T11:06:46;2.00;;;1.30;;
63189;SDS011;49286;44.460;26.114;2023-08-01T11:09:21;2.30;;;1.17;;
63189;SDS011;49286;44.460;26.114;2023-08-01T11:11:57;1.38;;;1.20;;
63189;SDS011;49286;44.460;26.114;2023-08-01T11:14:27;2.08;;;1.08;;
63189;SDS011;49286;44.460;26.114;2023-08-01T11:16:54;1.67;;;1.05;;
63189;SDS011;49286;44.460;26.114;2023-08-01T11:19:24;3.30;;;1.30;;
63189;SDS011;49286;44.460;26.114;2023-08-01T11:21:51;1.60;;;1.08;;
63189;SDS011;49286;44.460;26.114;2023-08-01T11:24:19;3.03;;;1.58;;
63189;SDS011;49286;44.460;26.114;2023-08-01T11:26:48;1.20;;;0.90;;
63189;SDS011;49286;44.460;26.114;2023-08-01T11:29:14;1.55;;;1.25;;
63189;SDS011;49286;44.460;26.114;2023-08-01T11:31:41;2.15;;;1.05;;
63189;SDS011;49286;44.460;26.114;2023-08-01T11:34:17;1.75;;;1.52;;
63189;SDS011;49286;44.460;26.114;2023-08-01T11:36:43;1.95;;;1.10;;
63189;SDS011;49286;44.460;26.114;2023-08-01T11:39:11;2.17;;;0.95;;
63189;SDS011;49286;44.460;26.114;2023-08-01T11:41:37;0.82;;;0.77;;
63189;SDS011;49286;44.460;26.114;2023-08-01T11:44:03;1.30;;;0.93;;
63189;SDS011;49286;44.460;26.114;2023-08-01T11:46:33;2.67;;;1.63;;
63189;SDS011;49286;44.460;26.114;2023-08-01T11:49:00;1.45;;;0.93;;
63189;SDS011;49286;44.460;26.114;2023-08-01T11:51:27;1.17;;;0.80;;
63189;SDS011;49286;44.460;26.114;2023-08-01T11:54:00;1.50;;;1.00;;
63189;SDS011;49286;44.460;26.114;2023-08-01T11:56:26;1.27;;;0.82;;
63189;SDS011;49286;44.460;26.114;2023-08-01T11:58:52;1.77;;;0.95;;
63189;SDS011;49286;44.460;26.114;2023-08-01T12:01:18;3.97;;;1.70;;
63189;SDS011;49286;44.460;26.114;2023-08-01T12:03:44;0.85;;;0.55;;
63189;SDS011;49286;44.460;26.114;2023-08-01T12:06:11;2.08;;;1.20;;
63189;SDS011;49286;44.460;26.114;2023-08-01T12:08:38;2.53;;;1.50;;
63189;SDS011;49286;44.460;26.114;2023-08-01T12:11:04;1.63;;;1.00;;
63189;SDS011;49286;44.460;26.114;2023-08-01T12:13:29;1.08;;;0.70;;
63189;SDS011;49286;44.460;26.114;2023-08-01T12:15:56;2.05;;;1.30;;
63189;SDS011;49286;44.460;26.114;2023-08-01T12:18:23;1.50;;;0.80;;
63189;SDS011;49286;44.460;26.114;2023-08-01T12:20:49;1.17;;;0.82;;
63189;SDS011;49286;44.460;26.114;2023-08-01T12:23:15;3.95;;;2.13;;
63189;SDS011;49286;44.460;26.114;2023-08-01T12:25:40;2.10;;;0.98;;
63189;SDS011;49286;44.460;26.114;2023-08-01T12:28:06;1.60;;;1.00;;
63189;SDS011;49286;44.460;26.114;2023-08-01T12:30:32;2.05;;;1.17;;
63189;SDS011;49286;44.460;26.114;2023-08-01T12:32:57;1.75;;;1.15;;
63189;SDS011;49286;44.460;26.114;2023-08-01T12:35:23;1.45;;;1.00;;
63189;SDS011;49286;44.460;26.114;2023-08-01T12:37:48;1.67;;;0.95;;
63189;SDS011;49286;44.460;26.114;2023-08-01T12:40:14;2.53;;;1.48;;
63189;SDS011;49286;44.460;26.114;2023-08-01T12:42:39;1.20;;;0.80;;
63189;SDS011;49286;44.460;26.114;2023-08-01T12:45:05;1.58;;;1.00;;
63189;SDS011;49286;44.460;26.114;2023-08-01T12:47:31;1.75;;;1.08;;
63189;SDS011;49286;44.460;26.114;2023-08-01T12:49:56;3.47;;;1.45;;
63189;SDS011;49286;44.460;26.114;2023-08-01T12:52:22;1.88;;;1.08;;
63189;SDS011;49286;44.460;26.114;2023-08-01T12:54:49;1.55;;;0.85;;
63189;SDS011;49286;44.460;26.114;2023-08-01T12:57:15;1.77;;;1.08;;
63189;SDS011;49286;44.460;26.114;2023-08-01T12:59:40;1.98;;;0.90;;
63189;SDS011;49286;44.460;26.114;2023-08-01T13:02:06;1.02;;;0.80;;
63189;SDS011;49286;44.460;26.114;2023-08-01T13:04:33;2.53;;;1.17;;
63189;SDS011;49286;44.460;26.114;2023-08-01T13:06:59;2.17;;;1.02;;
63189;SDS011;49286;44.460;26.114;2023-08-01T13:09:25;1.88;;;1.10;;
63189;SDS011;49286;44.460;26.114;2023-08-01T13:11:51;2.17;;;1.17;;
63189;SDS011;49286;44.460;26.114;2023-08-01T13:14:16;3.42;;;1.70;;
63189;SDS011;49286;44.460;26.114;2023-08-01T13:16:42;2.58;;;1.52;;
63189;SDS011;49286;44.460;26.114;2023-08-01T13:19:07;3.17;;;2.20;;
63189;SDS011;49286;44.460;26.114;2023-08-01T13:21:33;3.53;;;2.25;;
63189;SDS011;49286;44.460;26.114;2023-08-01T13:24:01;4.47;;;1.33;;
63189;SDS011;49286;44.460;26.114;2023-08-01T13:26:30;0.70;;;0.55;;
63189;SDS011;49286;44.460;26.114;2023-08-01T13:28:57;2.30;;;1.10;;
63189;SDS011;49286;44.460;26.114;2023-08-01T13:31:23;1.33;;;0.80;;
63189;SDS011;49286;44.460;26.114;2023-08-01T13:33:48;1.98;;;1.48;;
63189;SDS011;49286;44.460;26.114;2023-08-01T13:36:14;2.22;;;1.25;;
63189;SDS011;49286;44.460;26.114;2023-08-01T13:38:40;2.17;;;0.82;;
63189;SDS011;49286;44.460;26.114;2023-08-01T13:41:05;2.60;;;1.35;;
63189;SDS011;49286;44.460;26.114;2023-08-01T13:43:31;0.95;;;0.60;;
63189;SDS011;49286;44.460;26.114;2023-08-01T13:45:56;1.95;;;0.95;;
63189;SDS011;49286;44.460;26.114;2023-08-01T13:48:22;2.40;;;1.27;;
63189;SDS011;49286;44.460;26.114;2023-08-01T13:50:47;1.85;;;1.02;;
63189;SDS011;49286;44.460;26.114;2023-08-01T13:53:13;2.22;;;1.95;;
63189;SDS011;49286;44.460;26.114;2023-08-01T13:55:39;2.30;;;1.48;;
63189;SDS011;49286;44.460;26.114;2023-08-01T13:58:05;4.72;;;1.58;;
63189;SDS011;49286;44.460;26.114;2023-08-01T14:00:31;1.75;;;0.95;;
63189;SDS011;49286;44.460;26.114;2023-08-01T14:02:57;2.20;;;1.20;;
63189;SDS011;49286;44.460;26.114;2023-08-01T14:05:26;1.65;;;0.90;;
63189;SDS011;49286;44.460;26.114;2023-08-01T14:07:52;1.20;;;0.70;;
63189;SDS011;49286;44.460;26.114;2023-08-01T14:10:18;3.03;;;1.23;;
63189;SDS011;49286;44.460;26.114;2023-08-01T14:12:44;2.45;;;1.77;;
63189;SDS011;49286;44.460;26.114;2023-08-01T14:15:09;1.65;;;1.05;;
63189;SDS011;49286;44.460;26.114;2023-08-01T14:17:35;2.05;;;1.20;;
63189;SDS011;49286;44.460;26.114;2023-08-01T14:20:02;1.48;;;0.80;;
63189;SDS011;49286;44.460;26.114;2023-08-01T14:22:31;3.47;;;1.80;;
63189;SDS011;49286;44.460;26.114;2023-08-01T14:24:56;1.85;;;0.90;;
63189;SDS011;49286;44.460;26.114;2023-08-01T14:27:22;3.50;;;1.45;;
63189;SDS011;49286;44.460;26.114;2023-08-01T14:29:47;6.03;;;1.83;;
63189;SDS011;49286;44.460;26.114;2023-08-01T14:32:13;1.58;;;1.00;;
63189;SDS011;49286;44.460;26.114;2023-08-01T14:34:39;3.15;;;2.00;;
63189;SDS011;49286;44.460;26.114;2023-08-01T14:37:04;3.67;;;2.42;;
63189;SDS011;49286;44.460;26.114;2023-08-01T14:39:30;3.83;;;1.88;;